sensor_id;sensor_type;location;lat;lon;timestamp;temperature;humidity
30001;DHT22;16845;48.670;9.000;2022-07-23T00:00:48;22.30;99.90
30001;DHT22;16845;48.670;9.000;2022-07-23T00:03:16;22.30;99.90
30001;DHT22;16845;48.670;9.000;2022-07-23T00:05:44;22.30;99.90
30001;DHT22;16845;48.670;9.000;2022-07-23T00:08:12;22.30;99.90
30001;DHT22;16845;48.670;9.000;2022-07-23T00:10:40;22.30;99.90
30001;DHT22;16845;48.670;9.000;2022-07-23T00:13:08;22.30;99.90
30001;DHT22;16845;48.670;9.000;2022-07-23T00:15:36;22.20;99.90
30001;DHT22;16845;48.670;9.000;2022-07-23T00:18:05;22.30;99.90
30001;DHT22;16845;48.670;9.000;2022-07-23T00:20:33;22.30;99.90
30001;DHT22;16845;48.670;9.000;2022-07-23T00:23:01;22.10;99.90
30001;DHT22;16845;48.670;9.000;2022-07-23T00:25:29;22.00;99.90
30001;DHT22;16845;48.670;9.000;2022-07-23T00:27:58;21.80;99.90
30001;DHT22;16845;48.670;9.000;2022-07-23T00:30:27;21.60;99.90
30001;DHT22;16845;48.670;9.000;2022-07-23T00:32:59;21.40;99.90
30001;DHT22;16845;48.670;9.000;2022-07-23T00:35:33;21.10;99.90
30001;DHT22;16845;48.670;9.000;2022-07-23T00:38:03;20.80;99.90
30001;DHT22;16845;48.670;9.000;2022-07-23T00:40:31;20.60;99.90
30001;DHT22;16845;48.670;9.000;2022-07-23T00:43:00;20.50;99.90
30001;DHT22;16845;48.670;9.000;2022-07-23T00:45:28;20.40;99.90
30001;DHT22;16845;48.670;9.000;2022-07-23T00:47:56;20.40;99.90
30001;DHT22;16845;48.670;9.000;2022-07-23T00:50:24;20.40;99.90
30001;DHT22;16845;48.670;9.000;2022-07-23T00:52:54;20.50;99.90
30001;DHT22;16845;48.670;9.000;2022-07-23T00:55:22;20.50;99.90
30001;DHT22;16845;48.670;9.000;2022-07-23T00:57:50;20.50;99.90
30001;DHT22;16845;48.670;9.000;2022-07-23T01:00:18;20.50;99.90
30001;DHT22;16845;48.670;9.000;2022-07-23T01:02:46;20.50;99.90
30001;DHT22;16845;48.670;9.000;2022-07-23T01:05:14;20.60;99.90
30001;DHT22;16845;48.670;9.000;2022-07-23T01:07:42;20.80;99.90
30001;DHT22;16845;48.670;9.000;2022-07-23T01:10:13;20.80;99.90
30001;DHT22;16845;48.670;9.000;2022-07-23T01:13:00;20.90;99.90
30001;DHT22;16845;48.670;9.000;2022-07-23T01:15:28;20.90;99.90
30001;DHT22;16845;48.670;9.000;2022-07-23T01:17:56;20.90;99.90
30001;DHT22;16845;48.670;9.000;2022-07-23T01:20:24;21.00;99.90
30001;DHT22;16845;48.670;9.000;2022-07-23T01:22:54;21.00;99.90
30001;DHT22;16845;48.670;9.000;2022-07-23T01:25:22;21.00;99.90
30001;DHT22;16845;48.670;9.000;2022-07-23T01:27:51;21.00;99.90
30001;DHT22;16845;48.670;9.000;2022-07-23T01:30:20;21.00;99.90
30001;DHT22;16845;48.670;9.000;2022-07-23T01:32:48;21.00;99.90
30001;DHT22;16845;48.670;9.000;2022-07-23T01:35:16;21.00;99.90
30001;DHT22;16845;48.670;9.000;2022-07-23T01:37:44;21.00;99.90
30001;DHT22;16845;48.670;9.000;2022-07-23T01:40:13;20.90;99.90
30001;DHT22;16845;48.670;9.000;2022-07-23T01:42:41;20.70;99.90
30001;DHT22;16845;48.670;9.000;2022-07-23T01:45:10;20.70;99.90
30001;DHT22;16845;48.670;9.000;2022-07-23T01:47:37;20.70;99.90
30001;DHT22;16845;48.670;9.000;2022-07-23T01:50:06;20.70;99.90
30001;DHT22;16845;48.670;9.000;2022-07-23T01:52:34;20.60;99.90
30001;DHT22;16845;48.670;9.000;2022-07-23T01:55:03;20.50;99.90
30001;DHT22;16845;48.670;9.000;2022-07-23T01:57:33;20.40;99.90
30001;DHT22;16845;48.670;9.000;2022-07-23T02:00:02;20.30;99.90
30001;DHT22;16845;48.670;9.000;2022-07-23T02:02:30;20.30;99.90
30001;DHT22;16845;48.670;9.000;2022-07-23T02:04:58;20.40;99.90
30001;DHT22;16845;48.670;9.000;2022-07-23T02:07:26;20.40;99.90
30001;DHT22;16845;48.670;9.000;2022-07-23T02:09:59;20.30;99.90
30001;DHT22;16845;48.670;9.000;2022-07-23T02:12:27;20.30;99.90
30001;DHT22;16845;48.670;9.000;2022-07-23T02:14:56;20.30;99.90
30001;DHT22;16845;48.670;9.000;2022-07-23T02:17:24;20.40;99.90
30001;DHT22;16845;48.670;9.000;2022-07-23T02:19:52;20.40;99.90
30001;DHT22;16845;48.670;9.000;2022-07-23T02:22:20;20.40;99.90
30001;DHT22;16845;48.670;9.000;2022-07-23T02:24:48;20.40;99.90
30001;DHT22;16845;48.670;9.000;2022-07-23T02:27:16;20.40;99.90
30001;DHT22;16845;48.670;9.000;2022-07-23T02:29:44;20.30;99.90
30001;DHT22;16845;48.670;9.000;2022-07-23T02:32:13;20.40;99.90
30001;DHT22;16845;48.670;9.000;2022-07-23T02:34:41;20.40;99.90
30001;DHT22;16845;48.670;9.000;2022-07-23T02:37:09;20.50;99.90
30001;DHT22;16845;48.670;9.000;2022-07-23T02:39:37;20.60;99.90
30001;DHT22;16845;48.670;9.000;2022-07-23T02:42:05;20.60;99.90
30001;DHT22;16845;48.670;9.000;2022-07-23T02:44:33;20.60;99.90
30001;DHT22;16845;48.670;9.000;2022-07-23T02:47:01;20.70;99.90
30001;DHT22;16845;48.670;9.000;2022-07-23T02:49:30;20.70;99.90
30001;DHT22;16845;48.670;9.000;2022-07-23T02:51:58;20.70;99.90
30001;DHT22;16845;48.670;9.000;2022-07-23T02:54:26;20.80;99.90
30001;DHT22;16845;48.670;9.000;2022-07-23T02:56:54;20.80;99.90
30001;DHT22;16845;48.670;9.000;2022-07-23T02:59:22;20.70;99.90
30001;DHT22;16845;48.670;9.000;2022-07-23T03:01:50;20.80;99.90
30001;DHT22;16845;48.670;9.000;2022-07-23T03:04:17;20.70;99.90
30001;DHT22;16845;48.670;9.000;2022-07-23T03:06:47;20.70;99.90
30001;DHT22;16845;48.670;9.000;2022-07-23T03:09:15;20.70;99.90
30001;DHT22;16845;48.670;9.000;2022-07-23T03:11:43;20.70;99.90
30001;DHT22;16845;48.670;9.000;2022-07-23T03:14:11;20.60;99.90
30001;DHT22;16845;48.670;9.000;2022-07-23T03:16:40;20.60;99.90
30001;DHT22;16845;48.670;9.000;2022-07-23T03:19:08;20.50;99.90
30001;DHT22;16845;48.670;9.000;2022-07-23T03:21:35;20.50;99.90
30001;DHT22;16845;48.670;9.000;2022-07-23T03:24:08;20.50;99.90
30001;DHT22;16845;48.670;9.000;2022-07-23T03:26:37;20.50;99.90
30001;DHT22;16845;48.670;9.000;2022-07-23T03:29:05;20.40;99.90
30001;DHT22;16845;48.670;9.000;2022-07-23T03:31:32;20.40;99.90
30001;DHT22;16845;48.670;9.000;2022-07-23T03:34:01;20.30;99.90
30001;DHT22;16845;48.670;9.000;2022-07-23T03:36:28;20.20;99.90
30001;DHT22;16845;48.670;9.000;2022-07-23T03:38:56;20.10;99.90
30001;DHT22;16845;48.670;9.000;2022-07-23T03:41:29;20.10;99.90
30001;DHT22;16845;48.670;9.000;2022-07-23T03:43:56;20.00;99.90
30001;DHT22;16845;48.670;9.000;2022-07-23T03:46:24;20.00;99.90
30001;DHT22;16845;48.670;9.000;2022-07-23T03:48:52;19.90;99.90
30001;DHT22;16845;48.670;9.000;2022-07-23T03:51:24;19.80;99.90
30001;DHT22;16845;48.670;9.000;2022-07-23T03:53:52;19.80;99.90
30001;DHT22;16845;48.670;9.000;2022-07-23T03:56:21;19.70;99.90
30001;DHT22;16845;48.670;9.000;2022-07-23T03:58:50;19.70;99.90
30001;DHT22;16845;48.670;9.000;2022-07-23T04:01:18;19.60;99.90
30001;DHT22;16845;48.670;9.000;2022-07-23T04:03:47;19.60;99.90
30001;DHT22;16845;48.670;9.000;2022-07-23T04:06:14;19.70;99.90
30001;DHT22;16845;48.670;9.000;2022-07-23T04:08:42;19.80;99.90
30001;DHT22;16845;48.670;9.000;2022-07-23T04:11:10;20.00;99.90
30001;DHT22;16845;48.670;9.000;2022-07-23T04:13:38;20.10;99.90
30001;DHT22;16845;48.670;9.000;2022-07-23T04:16:07;20.10;99.90
30001;DHT22;16845;48.670;9.000;2022-07-23T04:18:35;20.20;99.90
30001;DHT22;16845;48.670;9.000;2022-07-23T04:21:03;20.30;99.90
30001;DHT22;16845;48.670;9.000;2022-07-23T04:23:31;20.30;99.90
30001;DHT22;16845;48.670;9.000;2022-07-23T04:25:59;20.40;99.90
30001;DHT22;16845;48.670;9.000;2022-07-23T04:28:27;20.30;99.90
30001;DHT22;16845;48.670;9.000;2022-07-23T04:30:56;20.40;99.90
30001;DHT22;16845;48.670;9.000;2022-07-23T04:33:25;20.50;99.90
30001;DHT22;16845;48.670;9.000;2022-07-23T04:35:53;20.50;99.90
30001;DHT22;16845;48.670;9.000;2022-07-23T04:38:21;20.60;99.90
30001;DHT22;16845;48.670;9.000;2022-07-23T04:40:49;20.70;99.90
30001;DHT22;16845;48.670;9.000;2022-07-23T04:43:17;20.70;99.90
30001;DHT22;16845;48.670;9.000;2022-07-23T04:45:45;20.80;99.90
30001;DHT22;16845;48.670;9.000;2022-07-23T04:48:13;20.80;99.90
30001;DHT22;16845;48.670;9.000;2022-07-23T04:50:44;21.00;99.90
30001;DHT22;16845;48.670;9.000;2022-07-23T04:53:12;21.00;99.90
30001;DHT22;16845;48.670;9.000;2022-07-23T04:55:40;21.10;99.90
30001;DHT22;16845;48.670;9.000;2022-07-23T04:58:08;21.20;99.90
30001;DHT22;16845;48.670;9.000;2022-07-23T05:00:36;21.20;99.90
30001;DHT22;16845;48.670;9.000;2022-07-23T05:03:04;21.20;99.90
30001;DHT22;16845;48.670;9.000;2022-07-23T05:05:32;21.30;99.90
30001;DHT22;16845;48.670;9.000;2022-07-23T05:08:01;21.30;99.90
30001;DHT22;16845;48.670;9.000;2022-07-23T05:10:29;21.30;99.90
30001;DHT22;16845;48.670;9.000;2022-07-23T05:12:57;21.30;99.90
30001;DHT22;16845;48.670;9.000;2022-07-23T05:15:25;21.30;99.90
30001;DHT22;16845;48.670;9.000;2022-07-23T05:17:52;21.20;99.90
30001;DHT22;16845;48.670;9.000;2022-07-23T05:20:20;21.30;99.90
30001;DHT22;16845;48.670;9.000;2022-07-23T05:22:48;21.30;99.90
30001;DHT22;16845;48.670;9.000;2022-07-23T05:25:17;21.30;99.90
30001;DHT22;16845;48.670;9.000;2022-07-23T05:27:45;21.30;99.90
30001;DHT22;16845;48.670;9.000;2022-07-23T05:30:13;21.40;99.90
30001;DHT22;16845;48.670;9.000;2022-07-23T05:32:41;21.60;99.90
30001;DHT22;16845;48.670;9.000;2022-07-23T05:35:09;21.70;99.90
30001;DHT22;16845;48.670;9.000;2022-07-23T05:37:37;21.90;99.90
30001;DHT22;16845;48.670;9.000;2022-07-23T05:40:07;21.90;99.90
30001;DHT22;16845;48.670;9.000;2022-07-23T05:42:38;21.90;99.90
30001;DHT22;16845;48.670;9.000;2022-07-23T05:45:07;21.80;99.90
30001;DHT22;16845;48.670;9.000;2022-07-23T05:47:42;21.70;99.90
30001;DHT22;16845;48.670;9.000;2022-07-23T05:50:11;21.60;99.90
30001;DHT22;16845;48.670;9.000;2022-07-23T05:52:40;21.50;99.90
30001;DHT22;16845;48.670;9.000;2022-07-23T05:55:10;21.60;99.90
30001;DHT22;16845;48.670;9.000;2022-07-23T05:57:41;21.70;99.90
30001;DHT22;16845;48.670;9.000;2022-07-23T06:00:10;21.70;99.90
30001;DHT22;16845;48.670;9.000;2022-07-23T06:02:38;21.80;99.90
30001;DHT22;16845;48.670;9.000;2022-07-23T06:05:08;21.90;99.90
30001;DHT22;16845;48.670;9.000;2022-07-23T06:07:36;22.00;99.90
30001;DHT22;16845;48.670;9.000;2022-07-23T06:10:05;22.10;99.90
30001;DHT22;16845;48.670;9.000;2022-07-23T06:12:33;22.20;99.90
30001;DHT22;16845;48.670;9.000;2022-07-23T06:15:03;22.40;99.90
30001;DHT22;16845;48.670;9.000;2022-07-23T06:17:37;22.50;99.90
30001;DHT22;16845;48.670;9.000;2022-07-23T06:20:07;22.80;99.90
30001;DHT22;16845;48.670;9.000;2022-07-23T06:22:35;22.90;99.90
30001;DHT22;16845;48.670;9.000;2022-07-23T06:25:04;23.10;99.90
30001;DHT22;16845;48.670;9.000;2022-07-23T06:27:44;23.30;99.90
30001;DHT22;16845;48.670;9.000;2022-07-23T06:30:14;23.50;99.90
30001;DHT22;16845;48.670;9.000;2022-07-23T06:32:44;23.50;99.90
30001;DHT22;16845;48.670;9.000;2022-07-23T06:35:12;23.50;99.90
30001;DHT22;16845;48.670;9.000;2022-07-23T06:37:40;23.70;99.90
30001;DHT22;16845;48.670;9.000;2022-07-23T06:40:09;23.90;99.90
30001;DHT22;16845;48.670;9.000;2022-07-23T06:42:37;24.00;99.90
30001;DHT22;16845;48.670;9.000;2022-07-23T06:45:07;24.00;99.90
30001;DHT22;16845;48.670;9.000;2022-07-23T06:47:36;24.00;99.90
30001;DHT22;16845;48.670;9.000;2022-07-23T06:50:05;23.90;99.90
30001;DHT22;16845;48.670;9.000;2022-07-23T06:52:33;23.70;99.90
30001;DHT22;16845;48.670;9.000;2022-07-23T06:55:08;23.50;99.90
30001;DHT22;16845;48.670;9.000;2022-07-23T06:57:36;23.40;99.90
30001;DHT22;16845;48.670;9.000;2022-07-23T07:00:05;23.50;99.90
30001;DHT22;16845;48.670;9.000;2022-07-23T07:02:33;23.50;99.90
30001;DHT22;16845;48.670;9.000;2022-07-23T07:05:02;23.30;99.90
30001;DHT22;16845;48.670;9.000;2022-07-23T07:07:32;23.10;99.90
30001;DHT22;16845;48.670;9.000;2022-07-23T07:10:00;22.90;99.90
30001;DHT22;16845;48.670;9.000;2022-07-23T07:12:28;22.80;99.90
30001;DHT22;16845;48.670;9.000;2022-07-23T07:14:56;22.80;99.90
30001;DHT22;16845;48.670;9.000;2022-07-23T07:17:24;22.90;99.90
30001;DHT22;16845;48.670;9.000;2022-07-23T07:19:52;23.40;99.90
30001;DHT22;16845;48.670;9.000;2022-07-23T07:22:21;24.10;99.90
30001;DHT22;16845;48.670;9.000;2022-07-23T07:24:49;24.70;99.90
30001;DHT22;16845;48.670;9.000;2022-07-23T07:27:17;24.90;99.90
30001;DHT22;16845;48.670;9.000;2022-07-23T07:29:45;25.50;99.90
30001;DHT22;16845;48.670;9.000;2022-07-23T07:32:13;25.90;99.90
30001;DHT22;16845;48.670;9.000;2022-07-23T07:35:01;26.30;99.90
30001;DHT22;16845;48.670;9.000;2022-07-23T07:37:30;25.80;99.90
30001;DHT22;16845;48.670;9.000;2022-07-23T07:39:58;25.90;99.90
30001;DHT22;16845;48.670;9.000;2022-07-23T07:42:26;26.00;99.90
30001;DHT22;16845;48.670;9.000;2022-07-23T07:44:54;26.40;99.90
30001;DHT22;16845;48.670;9.000;2022-07-23T07:47:22;26.70;99.90
30001;DHT22;16845;48.670;9.000;2022-07-23T07:49:50;27.10;99.90
30001;DHT22;16845;48.670;9.000;2022-07-23T07:52:18;27.50;99.90
30001;DHT22;16845;48.670;9.000;2022-07-23T07:54:47;27.60;99.90
30001;DHT22;16845;48.670;9.000;2022-07-23T07:57:15;27.90;99.90
30001;DHT22;16845;48.670;9.000;2022-07-23T07:59:43;28.20;99.90
30001;DHT22;16845;48.670;9.000;2022-07-23T08:02:11;28.60;99.90
30001;DHT22;16845;48.670;9.000;2022-07-23T08:04:39;28.40;99.90
30001;DHT22;16845;48.670;9.000;2022-07-23T08:07:07;28.90;99.90
30001;DHT22;16845;48.670;9.000;2022-07-23T08:09:35;28.30;99.90
30001;DHT22;16845;48.670;9.000;2022-07-23T08:12:04;28.20;99.90
30001;DHT22;16845;48.670;9.000;2022-07-23T08:14:33;27.70;99.90
30001;DHT22;16845;48.670;9.000;2022-07-23T08:17:00;27.40;99.90
30001;DHT22;16845;48.670;9.000;2022-07-23T08:19:40;27.50;99.90
30001;DHT22;16845;48.670;9.000;2022-07-23T08:22:09;28.20;99.90
30001;DHT22;16845;48.670;9.000;2022-07-23T08:24:36;29.10;99.90
30001;DHT22;16845;48.670;9.000;2022-07-23T08:27:06;28.60;99.90
30001;DHT22;16845;48.670;9.000;2022-07-23T08:29:34;28.50;99.90
30001;DHT22;16845;48.670;9.000;2022-07-23T08:32:02;29.10;99.90
30001;DHT22;16845;48.670;9.000;2022-07-23T08:34:50;29.50;99.90
30001;DHT22;16845;48.670;9.000;2022-07-23T08:37:17;28.90;99.30
30001;DHT22;16845;48.670;9.000;2022-07-23T08:39:45;29.40;99.90
30001;DHT22;16845;48.670;9.000;2022-07-23T08:42:15;29.20;99.90
30001;DHT22;16845;48.670;9.000;2022-07-23T08:44:45;28.90;99.90
30001;DHT22;16845;48.670;9.000;2022-07-23T08:47:14;28.70;99.90
30001;DHT22;16845;48.670;9.000;2022-07-23T08:49:44;28.60;99.40
30001;DHT22;16845;48.670;9.000;2022-07-23T08:52:13;28.40;99.90
30001;DHT22;16845;48.670;9.000;2022-07-23T08:54:42;28.50;99.00
30001;DHT22;16845;48.670;9.000;2022-07-23T08:57:10;28.40;99.90
30001;DHT22;16845;48.670;9.000;2022-07-23T08:59:39;28.10;99.90
30001;DHT22;16845;48.670;9.000;2022-07-23T09:02:08;28.10;99.90
30001;DHT22;16845;48.670;9.000;2022-07-23T09:04:36;28.20;99.90
30001;DHT22;16845;48.670;9.000;2022-07-23T09:07:04;28.50;99.90
30001;DHT22;16845;48.670;9.000;2022-07-23T09:09:32;29.00;99.60
30001;DHT22;16845;48.670;9.000;2022-07-23T09:12:04;29.50;99.90
30001;DHT22;16845;48.670;9.000;2022-07-23T09:14:37;29.70;99.90
30001;DHT22;16845;48.670;9.000;2022-07-23T09:17:10;30.30;97.90
30001;DHT22;16845;48.670;9.000;2022-07-23T09:19:39;30.80;97.60
30001;DHT22;16845;48.670;9.000;2022-07-23T09:22:18;31.00;98.10
30001;DHT22;16845;48.670;9.000;2022-07-23T09:25:10;31.40;95.70
30001;DHT22;16845;48.670;9.000;2022-07-23T09:27:48;31.60;95.20
30001;DHT22;16845;48.670;9.000;2022-07-23T09:30:22;31.90;95.50
30001;DHT22;16845;48.670;9.000;2022-07-23T09:33:13;32.50;96.50
30001;DHT22;16845;48.670;9.000;2022-07-23T09:35:49;32.40;95.30
30001;DHT22;16845;48.670;9.000;2022-07-23T09:38:18;31.10;95.60
30001;DHT22;16845;48.670;9.000;2022-07-23T09:41:04;32.00;95.90
30001;DHT22;16845;48.670;9.000;2022-07-23T09:43:33;32.40;94.50
30001;DHT22;16845;48.670;9.000;2022-07-23T09:46:16;32.90;94.30
30001;DHT22;16845;48.670;9.000;2022-07-23T09:48:46;34.20;94.90
30001;DHT22;16845;48.670;9.000;2022-07-23T09:51:14;34.60;91.80
30001;DHT22;16845;48.670;9.000;2022-07-23T09:53:44;34.00;90.90
30001;DHT22;16845;48.670;9.000;2022-07-23T09:56:13;32.60;94.40
30001;DHT22;16845;48.670;9.000;2022-07-23T09:58:42;33.00;95.40
30001;DHT22;16845;48.670;9.000;2022-07-23T10:01:14;33.30;95.10
30001;DHT22;16845;48.670;9.000;2022-07-23T10:03:42;33.00;92.40
30001;DHT22;16845;48.670;9.000;2022-07-23T10:06:13;32.60;91.50
30001;DHT22;16845;48.670;9.000;2022-07-23T10:08:41;33.00;92.00
30001;DHT22;16845;48.670;9.000;2022-07-23T10:11:12;33.60;93.90
30001;DHT22;16845;48.670;9.000;2022-07-23T10:13:42;33.60;91.20
30001;DHT22;16845;48.670;9.000;2022-07-23T10:16:27;34.30;94.60
30001;DHT22;16845;48.670;9.000;2022-07-23T10:18:56;34.50;89.30
30001;DHT22;16845;48.670;9.000;2022-07-23T10:21:30;34.70;89.80
30001;DHT22;16845;48.670;9.000;2022-07-23T10:24:12;33.50;90.40
30001;DHT22;16845;48.670;9.000;2022-07-23T10:26:51;33.50;88.30
30001;DHT22;16845;48.670;9.000;2022-07-23T10:29:27;34.10;88.40
30001;DHT22;16845;48.670;9.000;2022-07-23T10:32:02;33.80;90.20
30001;DHT22;16845;48.670;9.000;2022-07-23T10:34:40;33.60;90.30
30001;DHT22;16845;48.670;9.000;2022-07-23T10:37:14;35.50;91.30
30001;DHT22;16845;48.670;9.000;2022-07-23T10:39:47;36.10;84.60
30001;DHT22;16845;48.670;9.000;2022-07-23T10:42:17;36.70;83.70
30001;DHT22;16845;48.670;9.000;2022-07-23T10:44:46;36.60;83.50
30001;DHT22;16845;48.670;9.000;2022-07-23T10:47:25;35.70;78.20
30001;DHT22;16845;48.670;9.000;2022-07-23T10:50:24;35.70;78.60
30001;DHT22;16845;48.670;9.000;2022-07-23T10:53:14;34.10;79.20
30001;DHT22;16845;48.670;9.000;2022-07-23T10:55:49;34.50;86.30
30001;DHT22;16845;48.670;9.000;2022-07-23T10:58:22;34.50;81.10
30001;DHT22;16845;48.670;9.000;2022-07-23T11:00:51;35.20;86.50
30001;DHT22;16845;48.670;9.000;2022-07-23T11:03:30;36.10;85.20
30001;DHT22;16845;48.670;9.000;2022-07-23T11:06:00;35.90;77.30
30001;DHT22;16845;48.670;9.000;2022-07-23T11:08:29;37.10;81.60
30001;DHT22;16845;48.670;9.000;2022-07-23T11:11:13;37.90;80.50
30001;DHT22;16845;48.670;9.000;2022-07-23T11:13:49;39.40;75.90
30001;DHT22;16845;48.670;9.000;2022-07-23T11:16:24;39.10;69.50
30001;DHT22;16845;48.670;9.000;2022-07-23T11:19:05;38.90;75.20
30001;DHT22;16845;48.670;9.000;2022-07-23T11:21:43;38.00;71.10
30001;DHT22;16845;48.670;9.000;2022-07-23T11:24:17;38.50;75.80
30001;DHT22;16845;48.670;9.000;2022-07-23T11:27:00;38.50;74.20
30001;DHT22;16845;48.670;9.000;2022-07-23T11:29:45;38.30;66.70
30001;DHT22;16845;48.670;9.000;2022-07-23T11:32:34;37.20;74.70
30001;DHT22;16845;48.670;9.000;2022-07-23T11:35:26;37.90;73.20
30001;DHT22;16845;48.670;9.000;2022-07-23T11:38:03;36.90;66.80
30001;DHT22;16845;48.670;9.000;2022-07-23T11:40:33;35.90;71.80
30001;DHT22;16845;48.670;9.000;2022-07-23T11:43:03;35.70;74.20
30001;DHT22;16845;48.670;9.000;2022-07-23T11:45:34;36.30;75.80
30001;DHT22;16845;48.670;9.000;2022-07-23T11:48:03;36.30;71.50
30001;DHT22;16845;48.670;9.000;2022-07-23T11:50:32;35.90;72.10
30001;DHT22;16845;48.670;9.000;2022-07-23T11:53:00;35.90;70.10
30001;DHT22;16845;48.670;9.000;2022-07-23T11:55:28;35.30;70.70
30001;DHT22;16845;48.670;9.000;2022-07-23T11:57:58;35.30;68.30
30001;DHT22;16845;48.670;9.000;2022-07-23T12:00:31;35.50;70.40
30001;DHT22;16845;48.670;9.000;2022-07-23T12:03:06;36.20;73.60
30001;DHT22;16845;48.670;9.000;2022-07-23T12:05:36;36.30;73.90
30001;DHT22;16845;48.670;9.000;2022-07-23T12:08:06;36.70;69.70
30001;DHT22;16845;48.670;9.000;2022-07-23T12:10:35;35.80;72.50
30001;DHT22;16845;48.670;9.000;2022-07-23T12:13:07;34.80;71.60
30001;DHT22;16845;48.670;9.000;2022-07-23T12:15:38;34.30;74.20
30001;DHT22;16845;48.670;9.000;2022-07-23T12:18:12;34.30;75.50
30001;DHT22;16845;48.670;9.000;2022-07-23T12:20:43;34.00;72.30
30001;DHT22;16845;48.670;9.000;2022-07-23T12:23:13;33.50;75.70
30001;DHT22;16845;48.670;9.000;2022-07-23T12:25:48;34.70;71.50
30001;DHT22;16845;48.670;9.000;2022-07-23T12:28:19;35.60;69.60
30001;DHT22;16845;48.670;9.000;2022-07-23T12:30:48;35.10;75.40
30001;DHT22;16845;48.670;9.000;2022-07-23T12:33:22;35.90;77.30
30001;DHT22;16845;48.670;9.000;2022-07-23T12:35:52;35.40;74.90
30001;DHT22;16845;48.670;9.000;2022-07-23T12:38:22;35.90;73.40
30001;DHT22;16845;48.670;9.000;2022-07-23T12:40:52;35.70;71.70
30001;DHT22;16845;48.670;9.000;2022-07-23T12:43:23;34.40;71.60
30001;DHT22;16845;48.670;9.000;2022-07-23T12:45:53;32.90;75.00
30001;DHT22;16845;48.670;9.000;2022-07-23T12:48:25;31.90;76.90
30001;DHT22;16845;48.670;9.000;2022-07-23T12:50:56;32.90;77.40
30001;DHT22;16845;48.670;9.000;2022-07-23T12:53:27;34.00;72.80
30001;DHT22;16845;48.670;9.000;2022-07-23T12:56:04;33.10;75.80
30001;DHT22;16845;48.670;9.000;2022-07-23T12:58:47;33.30;76.60
30001;DHT22;16845;48.670;9.000;2022-07-23T13:01:25;34.80;73.40
30001;DHT22;16845;48.670;9.000;2022-07-23T13:03:59;36.30;70.80
30001;DHT22;16845;48.670;9.000;2022-07-23T13:06:30;38.10;71.40
30001;DHT22;16845;48.670;9.000;2022-07-23T13:08:58;37.10;72.70
30001;DHT22;16845;48.670;9.000;2022-07-23T13:11:29;35.90;69.30
30001;DHT22;16845;48.670;9.000;2022-07-23T13:13:58;35.50;72.60
30001;DHT22;16845;48.670;9.000;2022-07-23T13:16:27;36.80;69.30
30001;DHT22;16845;48.670;9.000;2022-07-23T13:18:56;37.80;68.70
30001;DHT22;16845;48.670;9.000;2022-07-23T13:21:25;37.50;69.00
30001;DHT22;16845;48.670;9.000;2022-07-23T13:23:54;38.10;68.40
30001;DHT22;16845;48.670;9.000;2022-07-23T13:26:22;37.40;66.40
30001;DHT22;16845;48.670;9.000;2022-07-23T13:28:51;36.40;70.60
30001;DHT22;16845;48.670;9.000;2022-07-23T13:31:20;35.80;73.40
30001;DHT22;16845;48.670;9.000;2022-07-23T13:33:50;34.10;68.60
30001;DHT22;16845;48.670;9.000;2022-07-23T13:36:18;32.00;72.10
30001;DHT22;16845;48.670;9.000;2022-07-23T13:38:46;31.80;78.20
30001;DHT22;16845;48.670;9.000;2022-07-23T13:41:16;30.80;78.60
30001;DHT22;16845;48.670;9.000;2022-07-23T13:43:45;30.80;77.30
30001;DHT22;16845;48.670;9.000;2022-07-23T13:46:13;30.60;76.70
30001;DHT22;16845;48.670;9.000;2022-07-23T13:48:43;30.50;81.50
30001;DHT22;16845;48.670;9.000;2022-07-23T13:51:11;30.10;78.70
30001;DHT22;16845;48.670;9.000;2022-07-23T13:53:39;29.20;81.50
30001;DHT22;16845;48.670;9.000;2022-07-23T13:56:07;28.70;80.50
30001;DHT22;16845;48.670;9.000;2022-07-23T13:58:35;28.40;86.20
30001;DHT22;16845;48.670;9.000;2022-07-23T14:01:03;28.10;83.20
30001;DHT22;16845;48.670;9.000;2022-07-23T14:03:32;27.80;85.00
30001;DHT22;16845;48.670;9.000;2022-07-23T14:06:02;27.80;83.60
30001;DHT22;16845;48.670;9.000;2022-07-23T14:08:41;27.90;85.80
30001;DHT22;16845;48.670;9.000;2022-07-23T14:11:10;27.70;84.70
30001;DHT22;16845;48.670;9.000;2022-07-23T14:13:38;27.70;88.80
30001;DHT22;16845;48.670;9.000;2022-07-23T14:16:07;27.90;86.10
30001;DHT22;16845;48.670;9.000;2022-07-23T14:18:35;27.90;85.60
30001;DHT22;16845;48.670;9.000;2022-07-23T14:21:05;28.20;90.60
30001;DHT22;16845;48.670;9.000;2022-07-23T14:23:33;28.70;86.30
30001;DHT22;16845;48.670;9.000;2022-07-23T14:26:01;29.00;91.40
30001;DHT22;16845;48.670;9.000;2022-07-23T14:28:32;29.30;85.90
30001;DHT22;16845;48.670;9.000;2022-07-23T14:31:01;29.10;90.80
30001;DHT22;16845;48.670;9.000;2022-07-23T14:33:29;29.10;87.00
30001;DHT22;16845;48.670;9.000;2022-07-23T14:35:58;28.90;87.80
30001;DHT22;16845;48.670;9.000;2022-07-23T14:38:28;28.60;83.80
30001;DHT22;16845;48.670;9.000;2022-07-23T14:40:57;28.20;88.20
30001;DHT22;16845;48.670;9.000;2022-07-23T14:43:25;27.90;87.80
30001;DHT22;16845;48.670;9.000;2022-07-23T14:45:54;27.60;89.00
30001;DHT22;16845;48.670;9.000;2022-07-23T14:48:22;27.60;91.30
30001;DHT22;16845;48.670;9.000;2022-07-23T14:50:51;27.50;91.40
30001;DHT22;16845;48.670;9.000;2022-07-23T14:53:19;27.30;90.30
30001;DHT22;16845;48.670;9.000;2022-07-23T14:55:52;27.40;92.70
30001;DHT22;16845;48.670;9.000;2022-07-23T14:58:21;27.70;89.30
30001;DHT22;16845;48.670;9.000;2022-07-23T15:00:49;27.90;90.00
30001;DHT22;16845;48.670;9.000;2022-07-23T15:03:17;27.90;84.80
30001;DHT22;16845;48.670;9.000;2022-07-23T15:05:45;28.10;91.20
30001;DHT22;16845;48.670;9.000;2022-07-23T15:08:13;29.00;85.60
30001;DHT22;16845;48.670;9.000;2022-07-23T15:10:48;30.00;85.30
30001;DHT22;16845;48.670;9.000;2022-07-23T15:13:18;30.30;86.40
30001;DHT22;16845;48.670;9.000;2022-07-23T15:15:45;29.70;80.30
30001;DHT22;16845;48.670;9.000;2022-07-23T15:18:17;29.00;81.60
30001;DHT22;16845;48.670;9.000;2022-07-23T15:20:45;28.50;82.80
30001;DHT22;16845;48.670;9.000;2022-07-23T15:23:14;28.20;84.20
30001;DHT22;16845;48.670;9.000;2022-07-23T15:25:42;28.10;87.70
30001;DHT22;16845;48.670;9.000;2022-07-23T15:28:18;28.10;86.30
30001;DHT22;16845;48.670;9.000;2022-07-23T15:30:47;29.10;83.90
30001;DHT22;16845;48.670;9.000;2022-07-23T15:33:16;30.00;80.90
30001;DHT22;16845;48.670;9.000;2022-07-23T15:35:47;30.10;80.90
30001;DHT22;16845;48.670;9.000;2022-07-23T15:38:16;29.60;78.10
30001;DHT22;16845;48.670;9.000;2022-07-23T15:41:03;29.00;79.50
30001;DHT22;16845;48.670;9.000;2022-07-23T15:43:33;28.40;81.30
30001;DHT22;16845;48.670;9.000;2022-07-23T15:46:01;28.10;82.50
30001;DHT22;16845;48.670;9.000;2022-07-23T15:48:34;27.80;83.20